createdAt,value
2018-10-09T00:04:42.695Z,101149.69
2018-10-09T00:09:40.181Z,101149.03
2018-10-09T00:14:37.677Z,101158.52
2018-10-09T00:19:39.148Z,101146.97
2018-10-09T00:24:36.792Z,101149.05
2018-10-09T00:29:34.320Z,101147.19
2018-10-09T00:34:31.793Z,101137.23
2018-10-09T00:39:29.276Z,101117.68
2018-10-09T00:44:26.758Z,101124.62
2018-10-09T00:49:41.799Z,101118.13
2018-10-09T00:54:39.406Z,101129.95
2018-10-09T00:59:39.034Z,101146.11
2018-10-09T01:04:38.074Z,101155.15
2018-10-09T01:09:37.848Z,101159.83
2018-10-09T01:14:37.139Z,101159.30
2018-10-09T01:19:35.862Z,101157.22
2018-10-09T01:24:33.345Z,101156.48
2018-10-09T01:29:30.827Z,101150.63
2018-10-09T01:34:28.306Z,101144.91
2018-10-09T01:39:25.777Z,101154.88
2018-10-09T01:44:23.261Z,101141.23
2018-10-09T01:49:32.507Z,101142.14
2018-10-09T01:54:30.058Z,101149.59
2018-10-09T01:59:27.525Z,101147.57
2018-10-09T02:04:25.201Z,101141.66
2018-10-09T02:09:22.806Z,101143.28
2018-10-09T02:14:20.351Z,101139.91
2018-10-09T02:24:33.604Z,101129.31
2018-10-09T02:29:31.065Z,101117.84
2018-10-09T02:34:28.533Z,101113.97
2018-10-09T02:39:26.000Z,101119.86
2018-10-09T02:44:23.477Z,101117.39
2018-10-09T02:49:25.467Z,101116.61
2018-10-09T02:54:23.093Z,101118.05
2018-10-09T02:59:20.577Z,101112.29
2018-10-09T03:04:18.062Z,101111.98
2018-10-09T03:09:15.546Z,101107.84
2018-10-09T03:14:13.095Z,101096.41
2018-10-09T03:19:13.037Z,101098.29
2018-10-09T03:24:10.521Z,101091.77
2018-10-09T03:29:08.027Z,101089.77
2018-10-09T03:34:05.877Z,101081.87
2018-10-09T03:39:04.573Z,101070.95
2018-10-09T03:44:02.084Z,101073.92
2018-10-09T03:48:59.582Z,101066.28
2018-10-09T03:53:57.070Z,101084.30
2018-10-09T03:58:54.550Z,101090.06
2018-10-09T04:03:52.056Z,101084.30
2018-10-09T04:08:49.578Z,101091.53
2018-10-09T04:13:47.066Z,101091.26
2018-10-09T04:18:44.657Z,101087.13
2018-10-09T04:23:42.182Z,101100.40
2018-10-09T04:28:39.673Z,101094.77
2018-10-09T04:33:39.916Z,101097.45
2018-10-09T04:38:37.528Z,101091.55
2018-10-09T04:43:43.963Z,101100.02
2018-10-09T04:48:50.896Z,101101.86
2018-10-09T04:53:51.975Z,101107.01
2018-10-09T04:58:52.576Z,101108.18
2018-10-09T05:03:57.984Z,101118.69
2018-10-09T05:08:55.549Z,101111.36
2018-10-09T05:13:53.045Z,101102.63
2018-10-09T05:18:50.629Z,101110.73
2018-10-09T05:23:48.129Z,101097.25
2018-10-09T05:28:45.638Z,101101.09
2018-10-09T05:33:43.144Z,101107.48
2018-10-09T05:38:40.625Z,101117.73
2018-10-09T05:43:38.177Z,101117.23
2018-10-09T05:48:35.725Z,101125.98
2018-10-09T05:53:33.239Z,101137.80
2018-10-09T05:58:30.754Z,101126.06
2018-10-09T06:03:28.233Z,101124.52
2018-10-09T06:08:25.775Z,101128.63
2018-10-09T06:13:23.281Z,101132.00
2018-10-09T06:18:20.988Z,101126.16
2018-10-09T06:23:18.474Z,101131.92
2018-10-09T06:28:16.243Z,101131.67
2018-10-09T06:33:13.715Z,101129.42
2018-10-09T06:38:11.213Z,101149.32
2018-10-09T06:43:08.683Z,101153.09
2018-10-09T06:48:06.275Z,101150.08
2018-10-09T06:53:03.842Z,101160.23
2018-10-09T06:58:01.474Z,101156.38
2018-10-09T07:02:58.994Z,101175.18
2018-10-09T07:07:56.502Z,101175.02
2018-10-09T07:12:54.454Z,101170.88
2018-10-09T07:17:51.982Z,101183.70
2018-10-09T07:22:49.521Z,101186.22
2018-10-09T07:27:47.136Z,101202.34
2018-10-09T07:32:44.639Z,101206.91
2018-10-09T07:37:42.199Z,101205.90
2018-10-09T07:42:39.745Z,101203.24
2018-10-09T07:47:37.290Z,101201.06
2018-10-09T07:52:34.837Z,101202.17
2018-10-09T07:57:32.425Z,101205.13
2018-10-09T08:02:29.949Z,101211.09
2018-10-09T08:07:27.483Z,101217.94
2018-10-09T08:12:25.049Z,101208.15
2018-10-09T08:17:22.581Z,101215.66
2018-10-09T08:22:20.113Z,101211.81
2018-10-09T08:27:17.724Z,101215.91
2018-10-09T08:32:15.241Z,101207.27
2018-10-09T08:37:12.802Z,101211.88
2018-10-09T08:42:10.313Z,101212.95
2018-10-09T08:47:07.849Z,101207.73
2018-10-09T08:52:05.445Z,101209.41
2018-10-09T08:57:02.948Z,101210.80
2018-10-09T09:02:00.502Z,101208.89
2018-10-09T09:06:58.097Z,101216.13
2018-10-09T09:11:55.621Z,101212.77
2018-10-09T09:16:53.157Z,101214.56
2018-10-09T09:21:50.674Z,101214.89
2018-10-09T09:26:48.203Z,101212.32
2018-10-09T09:31:46.896Z,101223.59
2018-10-09T09:36:44.427Z,101224.05
2018-10-09T09:41:41.945Z,101221.08
2018-10-09T09:46:39.436Z,101217.90
2018-10-09T09:51:36.965Z,101211.23
2018-10-09T09:56:34.478Z,101209.85
2018-10-09T10:01:37.708Z,101200.45
2018-10-09T10:06:35.285Z,101195.73
2018-10-09T10:11:32.830Z,101190.89
2018-10-09T10:16:30.442Z,101199.16
2018-10-09T10:21:28.063Z,101190.62
2018-10-09T10:26:25.565Z,101191.06
2018-10-09T10:31:23.123Z,101186.86
2018-10-09T10:36:20.650Z,101187.39
2018-10-09T10:41:18.185Z,101184.39
2018-10-09T10:46:15.716Z,101179.44
2018-10-09T10:51:13.246Z,101173.02
2018-10-09T10:56:10.777Z,101163.33
2018-10-09T11:01:08.309Z,101163.73
2018-10-09T11:06:05.913Z,101165.97
2018-10-09T11:11:03.457Z,101158.48
2018-10-09T11:16:01.839Z,101158.11
2018-10-09T11:20:59.368Z,101147.81
2018-10-09T11:25:56.938Z,101148.84
2018-10-09T11:30:54.713Z,101144.41
2018-10-09T11:35:52.261Z,101142.49
2018-10-09T11:40:49.750Z,101140.98
2018-10-09T11:45:47.282Z,101134.70
2018-10-09T11:50:44.915Z,101125.86
2018-10-09T11:55:42.454Z,101119.67
2018-10-09T12:00:41.230Z,101111.58
2018-10-09T12:05:38.813Z,101107.64
2018-10-09T12:10:36.443Z,101104.66
2018-10-09T12:15:34.051Z,101109.75
2018-10-09T12:20:32.922Z,101101.47
2018-10-09T12:25:30.558Z,101099.05
2018-10-09T12:30:28.094Z,101095.41
2018-10-09T12:35:25.606Z,101087.09
2018-10-09T12:40:24.757Z,101083.47
2018-10-09T12:45:23.956Z,101082.26
2018-10-09T12:50:24.208Z,101073.94
2018-10-09T12:55:23.158Z,101084.91
2018-10-09T13:00:22.802Z,101078.92
2018-10-09T13:05:24.054Z,101086.92
2018-10-09T13:10:21.679Z,101086.83
2018-10-09T13:15:20.092Z,101080.78
2018-10-09T13:20:18.769Z,101073.06
2018-10-09T13:25:16.319Z,101066.03
2018-10-09T13:30:13.882Z,101070.22
2018-10-09T13:35:11.439Z,101068.64
2018-10-09T13:40:08.973Z,101062.11
2018-10-09T13:45:06.526Z,101058.16
2018-10-09T13:50:05.493Z,101057.36
2018-10-09T13:55:03.091Z,101053.01
2018-10-09T14:00:00.642Z,101049.43
2018-10-09T14:04:58.199Z,101041.86
2018-10-09T14:09:55.724Z,101045.58
2018-10-09T14:14:53.325Z,101038.58
2018-10-09T14:19:57.774Z,101040.79
2018-10-09T14:24:55.312Z,101033.27
2018-10-09T14:29:55.790Z,101025.67
2018-10-09T14:34:53.368Z,101022.04
2018-10-09T14:39:50.908Z,101027.72
2018-10-09T14:44:48.504Z,101025.12
2018-10-09T14:49:50.029Z,101034.11
2018-10-09T14:54:47.620Z,101027.34
2018-10-09T14:59:45.152Z,101021.59
2018-10-09T15:04:42.657Z,101029.14
2018-10-09T15:09:40.198Z,101027.88
2018-10-09T15:14:37.746Z,101024.00
2018-10-09T15:19:40.280Z,101036.34
2018-10-09T15:24:38.822Z,101030.35
2018-10-09T15:29:36.394Z,101035.81
2018-10-09T15:34:39.212Z,101035.90
2018-10-09T15:39:38.193Z,101032.20
2018-10-09T15:44:42.524Z,101025.32
2018-10-09T15:49:46.096Z,101027.31
2018-10-09T15:54:43.782Z,101041.45
2018-10-09T15:59:41.298Z,101045.72
2018-10-09T16:04:38.828Z,101049.92
2018-10-09T16:09:37.376Z,101052.91
2018-10-09T16:14:34.977Z,101044.19
2018-10-09T16:19:42.652Z,101053.02
2018-10-09T16:24:40.222Z,101059.29
2018-10-09T16:29:37.765Z,101063.73
2018-10-09T16:34:37.430Z,101063.56
2018-10-09T16:39:35.399Z,101062.75
2018-10-09T16:44:32.955Z,101066.63
2018-10-09T16:49:31.008Z,101062.84
2018-10-09T16:54:29.552Z,101064.66
2018-10-09T16:59:27.244Z,101071.06
2018-10-09T17:04:25.704Z,101075.83
2018-10-09T17:09:24.542Z,101070.87
2018-10-09T17:14:23.751Z,101066.88
2018-10-09T17:19:24.276Z,101071.58
2018-10-09T17:24:21.845Z,101076.66
2018-10-09T17:29:19.516Z,101079.72
2018-10-09T17:34:17.020Z,101080.83
2018-10-09T17:39:14.621Z,101087.42
2018-10-09T17:44:12.126Z,101085.08
2018-10-09T17:49:09.739Z,101088.19
2018-10-09T17:54:07.292Z,101085.39
2018-10-09T17:59:04.801Z,101092.38
2018-10-09T18:04:02.405Z,101095.51
2018-10-09T18:08:59.927Z,101093.17
2018-10-09T18:13:57.406Z,101092.75
2018-10-09T18:18:55.224Z,101092.33
2018-10-09T18:23:55.111Z,101087.73
2018-10-09T18:28:52.762Z,101089.01
2018-10-09T18:33:54.517Z,101088.48
2018-10-09T18:39:01.639Z,101089.82
2018-10-09T18:44:04.709Z,101086.47
2018-10-09T18:49:05.229Z,101089.17
2018-10-09T18:54:06.933Z,101088.51
2018-10-09T18:59:04.713Z,101087.25
2018-10-09T19:04:02.205Z,101087.97
2018-10-09T19:08:59.689Z,101092.48
2018-10-09T19:13:57.482Z,101096.20
2018-10-09T19:18:54.970Z,101098.77
2018-10-09T19:23:52.639Z,101102.89
2018-10-09T19:28:50.130Z,101107.35
2018-10-09T19:33:47.689Z,101107.42
2018-10-09T19:38:45.217Z,101120.41
2018-10-09T19:43:42.768Z,101124.16
2018-10-09T19:48:40.256Z,101125.88
2018-10-09T19:53:39.006Z,101129.85
2018-10-09T19:58:36.577Z,101129.61
2018-10-09T20:03:34.126Z,101131.81
2018-10-09T20:08:31.665Z,101140.92
2018-10-09T20:13:29.477Z,101137.12
2018-10-09T20:18:27.981Z,101142.02
2018-10-09T20:23:27.943Z,101142.42
2018-10-09T20:28:28.943Z,101152.26
2018-10-09T20:33:29.262Z,101150.04
2018-10-09T20:38:28.349Z,101157.41
2018-10-09T20:43:26.562Z,101156.30
2018-10-09T20:48:24.398Z,101151.50
2018-10-09T20:53:22.997Z,101150.43
2018-10-09T20:58:20.558Z,101153.40
2018-10-09T21:03:18.034Z,101151.72
2018-10-09T21:08:15.625Z,101142.48
2018-10-09T21:13:13.121Z,101144.64
2018-10-09T21:18:10.687Z,101144.86
2018-10-09T21:23:09.346Z,101144.27
2018-10-09T21:28:06.981Z,101147.04
2018-10-09T21:33:04.504Z,101152.52
2018-10-09T21:38:03.637Z,101151.40
2018-10-09T21:43:01.118Z,101150.77
2018-10-09T21:48:00.682Z,101148.20
2018-10-09T21:53:03.143Z,101143.52
2018-10-09T21:58:03.342Z,101138.06
2018-10-09T22:03:00.934Z,101132.77
2018-10-09T22:07:58.419Z,101135.64
2018-10-09T22:12:55.894Z,101132.48
2018-10-09T22:17:53.405Z,101134.30
2018-10-09T22:22:57.799Z,101131.05
2018-10-09T22:27:56.221Z,101131.94
2018-10-09T22:32:53.715Z,101128.08
2018-10-09T22:37:51.214Z,101129.08
2018-10-09T22:42:48.698Z,101126.66
2018-10-09T22:47:46.202Z,101125.39
2018-10-09T22:52:46.890Z,101122.45
2018-10-09T22:57:44.509Z,101129.26
2018-10-09T23:02:42.095Z,101129.55
2018-10-09T23:07:40.034Z,101132.59
2018-10-09T23:12:37.577Z,101125.25
2018-10-09T23:17:35.889Z,101135.05
2018-10-09T23:22:41.092Z,101130.27
2018-10-09T23:27:38.897Z,101132.27
2018-10-09T23:32:36.377Z,101136.14
2018-10-09T23:37:33.878Z,101136.80
2018-10-09T23:42:31.488Z,101134.84
2018-10-09T23:47:28.949Z,101125.32
2018-10-09T23:52:29.038Z,101131.52
2018-10-09T23:57:26.626Z,101122.52
